Estación Meteorológica Peña el Pijo (Robertgarden) [ 10/20/18 08:38:39 CEST ]

Fecha Hora Presion(HPa) Temp (°C) Humedad % Rocio (°C) Viento ( m/s) Direccion Lluvia 1Hora(mm) Lluvia 24H(mm) LLuvia Total(mm)
2018-Jun-29 01:01:56 1005.900 17.6 63 10.4         269.36
2018-Jun-29 02:02:01 1005.700 16.3 67 10.2         269.36
2018-Jun-29 03:01:39 1005.300 15.3 71 10.1         269.36
2018-Jun-29 04:01:46 1004.800 14.5 74 9.9         269.36
2018-Jun-29 05:01:40 1004.800 14.6 76 10.4         269.36
2018-Jun-29 06:01:39 1004.100 14.9 77 10.9         269.36
2018-Jun-29 07:01:45 1004.400 14.4 77 10.4         269.36
2018-Jun-29 08:01:50 1004.400 14.7 79 11.1         269.36
2018-Jun-29 09:01:51 1004.700 17.3 78 13.4         269.36
2018-Jun-29 10:01:57 1004.900 18.6 77 14.5         269.36
2018-Jun-29 11:01:43 1004.900 20.9 71 15.4         269.36
2018-Jun-29 12:01:41 1004.400 25.1 57 15.9         269.36
2018-Jun-29 13:02:01 1004.200 28.9 46 16.1         269.36
2018-Jun-29 14:01:48 1003.900 28.6 40 13.7 2.2 S     269.36
2018-Jun-29 15:02:02 1003.300 30.4 37 14.0         269.36
2018-Jun-29 16:01:56 1003.300 29.9 36 13.1 2.1 S     269.36
2018-Jun-29 17:01:39 1002.700 30.2 37 13.8         269.36
2018-Jun-29 18:01:27 1002.700 29.8 37 13.5 6.5 SW     269.36
2018-Jun-29 19:01:45 1002.300 27.8 39 12.6         269.36
2018-Jun-29 20:01:54 1003.100 26.6 44 13.3 4.3 NE     269.36
2018-Jun-29 21:01:59 1003.200 23.6 54 13.7         269.36
2018-Jun-29 22:01:41 1003.700 22.1 61 14.2         269.36
2018-Jun-29 23:01:41 1004.400 20.8 67 14.4         269.36

Temperatura Máxima:30°    Temperatura Mínima:14°
Presión Máxima:1005.900 Hpa    Presión Mínima:1002.300 Hpa


Volver